Ana Sayfa
METAR-TAF:

METAR-TAF

Havaalanları :

Atka, Alaska, Amerika Birleşik Devletleri

Enlem: 52-13-13N, Boylam: 174-12-23W, yükseklik: 17 m

Güncel hava durumu gözlemi

Rapor saat 05:04 UTC de 22 dakika önce yapıldı.
Rüzgar batı/kuzeybatıdan 6 kt
Sıcaklık 2°C
Nem 80%
Basınç 1018 hPa
2200 ft yükseklikte az bulutlu
2700 ft yükseklikte parçalı bulutlu
3700 ft yükseklikte çok bulutlu
bilinmiyor

METAR: PAAK 010504Z AUTO 29006KT UP FEW022 SCT027 OVC037 02/M01 A3006 RMK AO2 UPB03 FZRANO PNO $

Saat: 21:26 (05:26 UTC)


TAF: eksik

4.000'den fazla havaalanı için hava durumu gözlemleri ve tahminleri (METAR ve TAF raporları).

Kullanılabilir istasyonlar harita üzerinde sarı ve kırmızı noktalarla gösterilir.

İstasyonun adını görmek için fareyi noktanın üzerinde gezdirin.

Sonrasında hava gözlem ve tahminlerini görmek için tıklayın.

Haritayı değiştirmek için: yaklaştırmak için siyah artı işaretli yeşil düğmeye ve uzaklaştırmak için de eksi işaretli düğmeye hızla tıklayın; bitişik haritalar için yeşil okları kullanın.


METAR-TAF: